Time;durP1;ratioP1;P1;durP2;ratioP2;P2;SDS_P1;SDS_P2;PMS_P1;PMS_P2;Temp;Humidity;BMP_temperature;BMP_pressure;BME280_temperature;BME280_humidity;BME280_pressure;Samples;Min_cycle;Max_cycle;Signal;HPM_P1;HPM_P2
2023/07/28 00:01:30;;;;;;;0.40;0.20;;;;;;;19.48;100.00;99405.41;5022432;28;20538;-52
2023/07/28 00:03:57;;;;;;;0.40;0.20;;;;;;;19.52;100.00;99402.34;5031744;28;20505;-53
2023/07/28 00:06:24;;;;;;;0.40;0.20;;;;;;;19.55;100.00;99403.97;5031758;28;20918;-52
2023/07/28 00:08:50;;;;;;;0.40;0.20;;;;;;;19.59;100.00;99397.31;5031976;28;20950;-51
2023/07/28 00:11:17;;;;;;;0.40;0.20;;;;;;;19.59;100.00;99394.63;5031592;28;20883;-52
2023/07/28 00:13:43;;;;;;;0.40;0.20;;;;;;;19.61;100.00;99405.31;5031772;28;20527;-52
2023/07/28 00:16:10;;;;;;;0.40;0.20;;;;;;;19.65;100.00;99396.00;5031275;28;20941;-52
2023/07/28 00:18:36;;;;;;;0.40;0.20;;;;;;;19.69;100.00;99384.84;5031593;28;20470;-52
2023/07/28 00:21:05;;;;;;;0.40;0.20;;;;;;;19.59;100.00;99380.28;5031798;28;20504;-52
2023/07/28 00:23:31;;;;;;;0.40;0.20;;;;;;;19.61;100.00;99384.59;5025016;28;20431;-52
2023/07/28 00:25:58;;;;;;;0.40;0.20;;;;;;;19.61;100.00;99390.00;5013413;28;21069;-51
2023/07/28 00:28:24;;;;;;;0.40;0.20;;;;;;;19.33;100.00;99380.53;5031691;28;20448;-52
2023/07/28 00:30:51;;;;;;;0.40;0.20;;;;;;;19.52;100.00;99377.22;5019970;28;20850;-52
2023/07/28 00:33:18;;;;;;;0.40;0.20;;;;;;;19.47;100.00;99376.75;5031488;28;20422;-52
2023/07/28 00:35:44;;;;;;;0.40;0.20;;;;;;;19.53;100.00;99370.84;5031455;28;20548;-53
2023/07/28 00:38:11;;;;;;;0.40;0.20;;;;;;;19.53;100.00;99370.84;5034432;28;20482;-52
2023/07/28 00:40:37;;;;;;;0.40;0.20;;;;;;;19.30;100.00;99371.81;5035127;28;20528;-52
2023/07/28 00:43:04;;;;;;;0.40;0.20;;;;;;;19.40;100.00;99364.72;5035424;28;20951;-52
2023/07/28 00:45:32;;;;;;;0.40;0.20;;;;;;;19.49;100.00;99354.06;5034750;28;20499;-52
2023/07/28 00:47:59;;;;;;;0.40;0.20;;;;;;;19.50;100.00;99358.47;5034938;28;20491;-52
2023/07/28 00:50:26;;;;;;;0.40;0.20;;;;;;;19.47;100.00;99355.19;5034799;28;20433;-52
2023/07/28 00:52:55;;;;;;;0.40;0.20;;;;;;;19.50;100.00;99363.88;5035006;28;20472;-52
2023/07/28 00:55:22;;;;;;;0.40;0.20;;;;;;;19.53;100.00;99362.75;5034494;28;20523;-52
2023/07/28 00:57:50;;;;;;;0.40;0.20;;;;;;;19.47;100.00;99365.97;5034847;28;20455;-52
2023/07/28 01:00:16;;;;;;;0.40;0.20;;;;;;;19.48;100.00;99367.66;5029411;28;20427;-52
2023/07/28 01:02:43;;;;;;;0.40;0.20;;;;;;;19.55;100.00;99368.06;5030443;28;20491;-52
2023/07/28 01:05:10;;;;;;;0.40;0.20;;;;;;;19.49;100.00;99369.38;5033509;28;20475;-52
2023/07/28 01:07:47;;;;;;;0.40;0.20;;;;;;;19.46;100.00;99372.28;5034539;28;20495;-52
2023/07/28 01:10:31;;;;;;;0.40;0.20;;;;;;;19.46;100.00;99369.59;5034554;28;20817;-52
2023/07/28 01:12:58;;;;;;;0.40;0.20;;;;;;;19.52;100.00;99369.97;5034429;28;20446;-52
2023/07/28 01:15:25;;;;;;;0.40;0.20;;;;;;;19.45;100.00;99371.44;5034632;28;20862;-52
2023/07/28 01:17:52;;;;;;;0.40;0.20;;;;;;;19.52;100.00;99366.44;5034196;28;20963;-52
2023/07/28 01:20:19;;;;;;;0.40;0.20;;;;;;;19.57;100.00;99375.03;5034606;28;20507;-52
2023/07/28 01:22:48;;;;;;;0.40;0.20;;;;;;;19.56;100.00;99375.16;5033667;28;20504;-52
2023/07/28 01:25:28;;;;;;;0.40;0.20;;;;;;;19.61;100.00;99376.53;5014418;28;20556;-52
2023/07/28 01:27:56;;;;;;;0.40;0.20;;;;;;;19.59;100.00;99374.91;5032621;28;20414;-52
2023/07/28 01:30:25;;;;;;;0.40;0.20;;;;;;;19.60;100.00;99382.91;5024823;28;20864;-52
2023/07/28 01:32:55;;;;;;;0.40;0.20;;;;;;;19.46;100.00;99380.38;5032992;28;20447;-52
2023/07/28 01:35:23;;;;;;;0.40;0.20;;;;;;;19.42;100.00;99376.22;5034150;28;20488;-52
2023/07/28 01:37:52;;;;;;;0.40;0.20;;;;;;;19.46;100.00;99380.38;5033805;28;20527;-51
2023/07/28 01:40:19;;;;;;;0.40;0.20;;;;;;;19.35;100.00;99377.72;5034001;28;20477;-51
2023/07/28 01:42:46;;;;;;;0.40;0.20;;;;;;;19.27;100.00;99380.16;5008175;28;20462;-52
2023/07/28 01:45:12;;;;;;;0.40;0.20;;;;;;;19.39;100.00;99380.03;5033687;28;21058;-52
2023/07/28 01:47:39;;;;;;;0.40;0.20;;;;;;;19.41;100.00;99378.06;5033522;28;20939;-52
2023/07/28 01:50:06;;;;;;;0.40;0.20;;;;;;;19.33;100.00;99371.59;5032980;28;20426;-52
2023/07/28 01:52:32;;;;;;;0.40;0.20;;;;;;;19.33;100.00;99375.16;5033688;28;20549;-52
2023/07/28 01:54:59;;;;;;;0.40;0.20;;;;;;;19.33;100.00;99383.22;5033859;28;20531;-52
2023/07/28 01:57:27;;;;;;;0.40;0.20;;;;;;;19.32;100.00;99386.00;5008050;28;20487;-51
2023/07/28 01:59:54;;;;;;;0.40;0.20;;;;;;;19.30;100.00;99374.50;5028092;28;20971;-52
2023/07/28 02:02:21;;;;;;;0.40;0.20;;;;;;;19.21;100.00;99376.97;5029311;28;20549;-52
2023/07/28 02:04:47;;;;;;;0.40;0.20;;;;;;;19.32;100.00;99378.78;5033349;28;20451;-52
2023/07/28 02:07:13;;;;;;;0.40;0.20;;;;;;;19.40;100.00;99373.66;5033382;28;21075;-52
2023/07/28 02:09:40;;;;;;;0.40;0.20;;;;;;;19.41;100.00;99372.69;5033537;28;20513;-52
2023/07/28 02:12:06;;;;;;;0.40;0.20;;;;;;;19.26;100.00;99375.72;5033634;28;20470;-52
2023/07/28 02:14:33;;;;;;;0.40;0.20;;;;;;;19.23;100.00;99372.31;5033282;28;20422;-52
2023/07/28 02:16:59;;;;;;;0.40;0.20;;;;;;;19.30;100.00;99374.50;5033160;28;20558;-52
2023/07/28 02:19:26;;;;;;;0.40;0.20;;;;;;;19.36;100.00;99374.88;5033101;28;20428;-52
2023/07/28 02:21:53;;;;;;;0.40;0.20;;;;;;;19.38;100.00;99377.47;5033479;28;20886;-53
2023/07/28 02:24:19;;;;;;;0.40;0.20;;;;;;;19.36;100.00;99379.44;5019946;28;20435;-52
2023/07/28 02:26:46;;;;;;;0.40;0.20;;;;;;;19.27;100.00;99381.00;5020264;28;20914;-52
2023/07/28 02:29:12;;;;;;;0.40;0.20;;;;;;;19.29;100.00;99372.78;5031765;28;20487;-52
2023/07/28 02:31:39;;;;;;;0.40;0.20;;;;;;;19.27;100.00;99372.91;5008223;28;20866;-51
2023/07/28 02:34:05;;;;;;;0.40;0.20;;;;;;;19.36;100.00;99363.25;5032807;28;20430;-52
2023/07/28 02:36:32;;;;;;;0.40;0.20;;;;;;;19.22;100.00;99367.91;5033021;28;20554;-53
2023/07/28 02:38:58;;;;;;;0.40;0.20;;;;;;;19.21;100.00;99357.25;5032747;28;20505;-52
2023/07/28 02:41:25;;;;;;;0.40;0.20;;;;;;;19.21;100.00;99365.34;5033046;28;20426;-52
2023/07/28 02:43:51;;;;;;;0.40;0.20;;;;;;;19.27;100.00;99369.38;5032752;28;20525;-52
2023/07/28 02:46:18;;;;;;;0.40;0.20;;;;;;;19.27;100.00;99377.44;5033086;28;20470;-51
2023/07/28 02:48:44;;;;;;;0.40;0.20;;;;;;;19.29;100.00;99372.78;5032514;28;20426;-51
2023/07/28 02:51:11;;;;;;;0.40;0.20;;;;;;;19.29;100.00;99375.47;5032962;28;20451;-52
2023/07/28 02:53:37;;;;;;;0.40;0.20;;;;;;;19.27;100.00;99374.75;5032749;28;20488;-51
2023/07/28 02:56:04;;;;;;;0.40;0.20;;;;;;;19.33;100.00;99363.50;5032566;28;20446;-52
2023/07/28 02:58:30;;;;;;;0.40;0.20;;;;;;;19.27;100.00;99358.59;5032517;28;20432;-52
2023/07/28 03:00:56;;;;;;;0.40;0.20;;;;;;;19.29;100.00;99360.16;5027097;28;21005;-54
2023/07/28 03:03:23;;;;;;;0.40;0.20;;;;;;;19.23;100.00;99364.22;5028936;28;20458;-52
2023/07/28 03:05:52;;;;;;;0.40;0.20;;;;;;;19.21;100.00;99363.50;5032644;28;20452;-52
2023/07/28 03:08:19;;;;;;;0.40;0.20;;;;;;;19.22;100.00;99359.81;5032426;28;20426;-51
2023/07/28 03:10:46;;;;;;;0.40;0.20;;;;;;;19.19;100.00;99365.47;5032455;28;20457;-52
2023/07/28 03:13:12;;;;;;;0.40;0.20;;;;;;;19.23;100.00;99371.44;5032407;28;20483;-52
2023/07/28 03:15:39;;;;;;;0.40;0.30;;;;;;;19.24;100.00;99368.63;5032720;28;20505;-51
2023/07/28 03:18:05;;;;;;;0.40;0.20;;;;;;;19.20;100.00;99374.41;5032231;28;20890;-52
2023/07/28 03:20:31;;;;;;;0.40;0.20;;;;;;;19.19;100.00;99368.16;5032231;28;20937;-52
2023/07/28 03:22:58;;;;;;;0.40;0.20;;;;;;;19.08;100.00;99372.66;5030067;28;20537;-52
2023/07/28 03:25:24;;;;;;;0.40;0.20;;;;;;;19.18;100.00;99376.31;5012659;28;20468;-52
2023/07/28 03:27:52;;;;;;;2.00;2.00;;;;;;;19.18;100.00;99387.09;5028979;28;21049;-52
2023/07/28 03:30:19;;;;;;;0.40;0.20;;;;;;;19.14;100.00;99378.41;5022916;28;20438;-52
2023/07/28 03:32:45;;;;;;;0.40;0.20;;;;;;;19.21;100.00;99376.97;5029494;28;20449;-52
2023/07/28 03:35:13;;;;;;;0.40;0.20;;;;;;;19.19;100.00;99376.22;5032040;28;20482;-52
2023/07/28 03:37:39;;;;;;;0.40;0.20;;;;;;;19.23;100.00;99377.69;5032036;28;20458;-52
2023/07/28 03:40:06;;;;;;;0.40;0.20;;;;;;;19.26;100.00;99376.59;5032094;28;20994;-51
2023/07/28 03:42:33;;;;;;;0.40;0.20;;;;;;;19.19;100.00;99368.16;5031866;28;20494;-52
2023/07/28 03:45:00;;;;;;;0.40;0.20;;;;;;;19.32;100.00;99373.41;5031821;28;20872;-52
2023/07/28 03:47:27;;;;;;;0.40;0.20;;;;;;;19.29;100.00;99368.25;5031824;28;21044;-51
2023/07/28 03:49:53;;;;;;;0.40;0.20;;;;;;;19.28;100.00;99373.78;5032008;28;20531;-52
2023/07/28 03:52:20;;;;;;;0.40;0.20;;;;;;;19.28;100.00;99379.16;5031898;28;20545;-52
2023/07/28 03:54:46;;;;;;;0.40;0.20;;;;;;;19.28;100.00;99376.47;5032190;28;20504;-51
2023/07/28 03:57:12;;;;;;;0.40;0.20;;;;;;;19.28;100.00;99377.31;5032081;28;20422;-52
2023/07/28 03:59:39;;;;;;;0.40;0.20;;;;;;;19.36;100.00;99368.66;5028402;28;20506;-52
2023/07/28 04:02:06;;;;;;;0.40;0.20;;;;;;;19.40;100.00;99372.81;5026382;28;20459;-51
2023/07/28 04:04:32;;;;;;;0.40;0.20;;;;;;;19.37;100.00;99375.75;5032021;28;20430;-52
2023/07/28 04:06:59;;;;;;;0.40;0.20;;;;;;;19.29;100.00;99381.72;5031552;28;21130;-52
2023/07/28 04:09:25;;;;;;;0.40;0.20;;;;;;;19.25;100.00;99382.97;5031626;28;20456;-52
2023/07/28 04:11:51;;;;;;;0.40;0.20;;;;;;;19.26;100.00;99383.81;5032487;28;20953;-53
2023/07/28 04:14:18;;;;;;;0.40;0.20;;;;;;;19.24;100.00;99382.09;5035620;28;20477;-51
2023/07/28 04:16:44;;;;;;;0.40;0.20;;;;;;;19.27;100.00;99380.16;5035211;28;20872;-52
2023/07/28 04:19:11;;;;;;;0.40;0.20;;;;;;;19.33;100.00;99385.94;5035743;28;20454;-51
2023/07/28 04:21:40;;;;;;;0.40;0.20;;;;;;;19.32;100.00;99394.97;5035420;28;20506;-52
2023/07/28 04:24:08;;;;;;;0.40;0.20;;;;;;;19.37;100.00;99390.09;5023811;28;20518;-52
2023/07/28 04:26:35;;;;;;;0.40;0.20;;;;;;;19.35;100.00;99394.75;5021872;28;20491;-52
2023/07/28 04:29:02;;;;;;;0.40;0.20;;;;;;;19.34;100.00;99397.56;5035585;28;20464;-52
2023/07/28 04:31:28;;;;;;;0.40;0.20;;;;;;;19.39;100.00;99398.91;5023134;28;20441;-51
2023/07/28 04:33:55;;;;;;;0.40;0.20;;;;;;;19.40;100.00;99400.59;5035253;28;20426;-52
2023/07/28 04:36:22;;;;;;;0.40;0.20;;;;;;;19.50;100.00;99416.91;5008969;28;20558;-51
2023/07/28 04:38:51;;;;;;;0.40;0.20;;;;;;;19.49;100.00;99420.59;5034983;28;20927;-52
2023/07/28 04:41:18;;;;;;;4.83;1.23;;;;;;;19.55;100.00;99416.56;5035093;28;20785;-51
2023/07/28 04:43:44;;;;;;;0.40;0.20;;;;;;;19.68;100.00;99418.16;5034908;28;20785;-51
2023/07/28 04:46:11;;;;;;;0.40;0.20;;;;;;;19.71;100.00;99425.16;5035117;28;20537;-52
2023/07/28 04:48:37;;;;;;;0.40;0.20;;;;;;;19.79;100.00;99433.50;5034866;28;20492;-51
2023/07/28 04:51:04;;;;;;;0.40;0.20;;;;;;;19.74;100.00;99427.63;5035050;28;20521;-53
2023/07/28 04:53:30;;;;;;;0.40;0.20;;;;;;;19.86;100.00;99431.16;5034881;28;20445;-51
2023/07/28 04:55:57;;;;;;;0.40;0.20;;;;;;;19.82;100.00;99433.25;5034709;28;20542;-51
2023/07/28 04:58:23;;;;;;;0.40;0.20;;;;;;;19.78;100.00;99435.34;5034633;28;20562;-51
2023/07/28 05:00:50;;;;;;;0.40;0.20;;;;;;;19.87;100.00;99435.56;5029455;28;20425;-51
2023/07/28 05:03:16;;;;;;;0.40;0.20;;;;;;;19.94;100.00;99436.78;5030539;28;20442;-51
2023/07/28 05:05:44;;;;;;;0.40;0.20;;;;;;;20.08;100.00;99442.78;5034649;28;20549;-51
2023/07/28 05:08:10;;;;;;;0.40;0.20;;;;;;;19.95;100.00;99438.50;5034405;28;20928;-51
2023/07/28 05:10:37;;;;;;;0.40;0.20;;;;;;;20.01;100.00;99444.28;5034585;28;20972;-51
2023/07/28 05:13:04;;;;;;;0.40;0.20;;;;;;;20.13;100.00;99442.41;5034576;28;21016;-52
2023/07/28 05:15:31;;;;;;;0.40;0.20;;;;;;;20.12;100.00;99456.88;5034566;28;20558;-51
2023/07/28 05:17:57;;;;;;;0.47;0.27;;;;;;;20.49;100.00;99441.25;5034359;28;20415;-51
2023/07/28 05:20:24;;;;;;;0.40;0.20;;;;;;;20.29;100.00;99442.03;5034562;28;20441;-50
2023/07/28 05:22:50;;;;;;;0.40;0.20;;;;;;;20.20;100.00;99448.16;5032899;28;20486;-51
2023/07/28 05:25:17;;;;;;;0.40;0.20;;;;;;;20.18;100.00;99448.31;5014846;28;20555;-50
2023/07/28 05:27:44;;;;;;;0.40;0.20;;;;;;;20.15;100.00;99448.56;5030250;28;20969;-51
2023/07/28 05:30:10;;;;;;;0.40;0.20;;;;;;;20.10;100.00;99446.22;5026493;28;20457;-51
2023/07/28 05:32:37;;;;;;;0.40;0.20;;;;;;;20.20;100.00;99438.22;5031052;28;20529;-51
2023/07/28 05:35:04;;;;;;;0.40;0.20;;;;;;;20.26;100.00;99440.41;5034087;28;20497;-51
2023/07/28 05:37:34;;;;;;;0.40;0.20;;;;;;;20.25;100.00;99446.78;5034084;28;20423;-51
2023/07/28 05:40:01;;;;;;;0.40;0.20;;;;;;;20.38;100.00;99446.66;5034030;28;20961;-51
2023/07/28 05:42:27;;;;;;;0.40;0.20;;;;;;;20.52;100.00;99451.78;5033979;28;20433;-52
2023/07/28 05:44:54;;;;;;;0.40;0.20;;;;;;;20.39;100.00;99454.63;5034256;28;20565;-52
2023/07/28 05:47:21;;;;;;;0.40;0.20;;;;;;;20.43;100.00;99449.88;5033643;28;20473;-51
2023/07/28 05:49:48;;;;;;;0.40;0.20;;;;;;;20.51;100.00;99450.09;5033799;28;20976;-53
2023/07/28 05:52:14;;;;;;;0.40;0.20;;;;;;;20.49;100.00;99454.75;5034228;28;20487;-51
2023/07/28 05:54:41;;;;;;;0.40;0.20;;;;;;;20.64;100.00;99464.28;5033987;28;20513;-51
2023/07/28 05:57:07;;;;;;;0.40;0.20;;;;;;;20.62;100.00;99460.84;5033798;28;20507;-51
2023/07/28 05:59:34;;;;;;;0.40;0.20;;;;;;;20.73;100.00;99461.81;5030937;28;20898;-51
2023/07/28 06:02:00;;;;;;;0.40;0.20;;;;;;;20.75;100.00;99457.13;5027411;28;20521;-52
2023/07/28 06:04:27;;;;;;;0.40;0.20;;;;;;;20.85;100.00;99468.88;5033862;28;21004;-51
2023/07/28 06:06:53;;;;;;;0.60;0.60;;;;;;;20.99;100.00;99471.28;5033546;28;20450;-51
2023/07/28 06:09:20;;;;;;;0.40;0.20;;;;;;;21.05;100.00;99473.44;5033680;28;20449;-52
2023/07/28 06:11:46;;;;;;;0.40;0.20;;;;;;;21.23;100.00;99468.31;5033471;28;20452;-51
2023/07/28 06:14:13;;;;;;;0.40;0.20;;;;;;;21.24;100.00;99470.00;5033604;28;20457;-52
2023/07/28 06:16:39;;;;;;;0.40;0.20;;;;;;;21.21;100.00;99476.53;5032803;28;20583;-52
2023/07/28 06:19:06;;;;;;;0.40;0.20;;;;;;;21.23;100.00;99476.41;5033086;28;20836;-51
2023/07/28 06:21:33;;;;;;;0.40;0.20;;;;;;;21.25;100.00;99478.06;5031996;28;20491;-51
2023/07/28 06:23:59;;;;;;;0.40;0.20;;;;;;;21.34;100.00;99473.69;5022548;28;20426;-53
2023/07/28 06:26:26;;;;;;;0.40;0.20;;;;;;;21.40;100.00;99475.88;5018324;28;20621;-52
2023/07/28 06:28:52;;;;;;;0.40;0.20;;;;;;;21.43;100.00;99481.00;5032996;28;20549;-52
2023/07/28 06:31:19;;;;;;;0.40;0.20;;;;;;;21.51;100.00;99477.63;5020592;28;20706;-51
2023/07/28 06:33:47;;;;;;;0.40;0.20;;;;;;;21.53;100.00;99484.63;5032720;28;20535;-51
2023/07/28 06:36:13;;;;;;;0.40;0.20;;;;;;;21.70;100.00;99482.31;5032107;28;20963;-51
2023/07/28 06:38:40;;;;;;;0.40;0.20;;;;;;;21.70;100.00;99485.00;5032894;28;20894;-51
2023/07/28 06:41:06;;;;;;;0.40;0.20;;;;;;;21.96;100.00;99477.31;5032773;28;20447;-53
2023/07/28 06:43:33;;;;;;;0.40;0.20;;;;;;;22.12;100.00;99481.25;5032822;28;20905;-51
2023/07/28 06:45:59;;;;;;;0.40;0.30;;;;;;;22.39;100.00;99480.59;5032558;28;20467;-51
2023/07/28 06:48:26;;;;;;;0.40;0.20;;;;;;;22.57;100.00;99472.66;5032557;28;21054;-51
2023/07/28 06:50:53;;;;;;;0.40;0.20;;;;;;;22.77;100.00;99485.25;5032490;28;20945;-52
2023/07/28 06:53:20;;;;;;;0.40;0.20;;;;;;;23.09;100.00;99492.28;5032841;28;20452;-51
2023/07/28 06:55:47;;;;;;;0.50;0.20;;;;;;;23.13;99.23;99484.69;5006147;28;20446;-52
2023/07/28 06:58:13;;;;;;;0.50;0.20;;;;;;;23.18;98.38;99491.41;5032575;28;20479;-52
2023/07/28 07:00:39;;;;;;;0.40;0.20;;;;;;;23.23;96.32;99496.41;5011430;28;20427;-52
2023/07/28 07:03:06;;;;;;;0.40;0.20;;;;;;;23.61;95.54;99492.81;5028004;28;20550;-52
2023/07/28 07:05:32;;;;;;;0.50;0.20;;;;;;;23.69;97.72;99494.78;5006578;28;21015;-51
2023/07/28 07:08:00;;;;;;;0.50;0.30;;;;;;;23.83;98.12;99491.59;5032270;28;20992;-52
2023/07/28 07:10:27;;;;;;;0.50;0.20;;;;;;;23.75;95.79;99499.63;5032359;28;20853;-52
2023/07/28 07:12:56;;;;;;;0.50;0.20;;;;;;;23.58;96.11;99504.81;5032398;28;20540;-50
2023/07/28 07:15:22;;;;;;;0.40;0.20;;;;;;;23.65;96.32;99507.78;5032330;28;20992;-51
2023/07/28 07:17:49;;;;;;;0.40;0.30;;;;;;;23.31;95.90;99513.69;5032465;28;20447;-50
2023/07/28 07:20:16;;;;;;;0.40;0.20;;;;;;;23.40;96.74;99508.38;5032524;28;20549;-51
2023/07/28 07:22:42;;;;;;;0.40;0.20;;;;;;;23.09;96.62;99505.81;5032384;28;20475;-51
2023/07/28 07:25:08;;;;;;;0.50;0.30;;;;;;;23.27;95.65;99509.50;5000751;28;20504;-51
2023/07/28 07:27:35;;;;;;;0.40;0.20;;;;;;;23.23;95.50;99510.81;5026872;28;20927;-51
2023/07/28 07:30:04;;;;;;;0.50;0.20;;;;;;;23.01;95.79;99516.50;5025732;28;20867;-50
2023/07/28 07:32:32;;;;;;;0.50;0.20;;;;;;;23.17;96.80;99516.81;5027646;28;20487;-53
2023/07/28 07:34:59;;;;;;;0.40;0.20;;;;;;;23.27;96.89;99519.50;5031326;28;20546;-50
2023/07/28 07:37:27;;;;;;;0.47;0.20;;;;;;;23.12;96.44;99527.22;5032288;28;20456;-52
2023/07/28 07:39:54;;;;;;;0.50;0.20;;;;;;;23.20;94.69;99530.09;5032378;28;20502;-50
2023/07/28 07:42:21;;;;;;;0.40;0.20;;;;;;;23.08;94.06;99528.50;5032537;28;20492;-51
2023/07/28 07:44:47;;;;;;;0.50;0.20;;;;;;;23.15;95.55;99537.78;5032283;28;20988;-50
2023/07/28 07:47:15;;;;;;;0.40;0.20;;;;;;;23.02;94.78;99538.06;5033800;28;20494;-51
2023/07/28 07:49:43;;;;;;;0.40;0.30;;;;;;;22.98;94.91;99533.06;5036415;28;20814;-50
2023/07/28 07:52:10;;;;;;;0.40;0.20;;;;;;;23.02;96.27;99540.75;5034915;28;20930;-50
2023/07/28 07:54:36;;;;;;;0.40;0.20;;;;;;;23.14;97.80;99536.06;5036339;28;20944;-50
2023/07/28 07:57:04;;;;;;;0.47;0.30;;;;;;;23.26;97.47;99540.34;5036046;28;20510;-50
2023/07/28 07:59:32;;;;;;;0.40;0.20;;;;;;;23.23;95.02;99546.06;5033922;28;20447;-51
2023/07/28 08:02:02;;;;;;;0.40;0.30;;;;;;;23.62;94.38;99540.66;5030745;28;20479;-51
2023/07/28 08:04:31;;;;;;;0.50;0.30;;;;;;;23.21;93.58;99545.34;5036326;28;20463;-51
2023/07/28 08:06:58;;;;;;;0.40;0.20;;;;;;;23.21;94.23;99544.50;5036011;28;20448;-51
2023/07/28 08:09:24;;;;;;;0.40;0.20;;;;;;;23.13;93.90;99547.06;5035844;28;20491;-52
2023/07/28 08:11:52;;;;;;;0.40;0.20;;;;;;;23.20;94.42;99550.94;5035821;28;20444;-51
2023/07/28 08:14:19;;;;;;;0.50;0.30;;;;;;;23.19;95.01;99552.78;5036067;28;20487;-51
2023/07/28 08:16:45;;;;;;;0.40;0.20;;;;;;;23.19;94.64;99549.22;5035598;28;20518;-51
2023/07/28 08:19:12;;;;;;;0.40;0.20;;;;;;;23.14;95.18;99549.63;5035694;28;20537;-51
2023/07/28 08:21:38;;;;;;;0.40;0.20;;;;;;;22.85;94.44;99559.59;5035471;28;20961;-51
2023/07/28 08:24:05;;;;;;;0.40;0.20;;;;;;;23.04;94.86;99556.91;5024222;28;20503;-51
2023/07/28 08:26:31;;;;;;;0.50;0.30;;;;;;;23.22;94.83;99554.34;5022476;28;20571;-50
2023/07/28 08:28:58;;;;;;;0.50;0.20;;;;;;;23.31;94.83;99543.50;5035533;28;20985;-51
2023/07/28 08:31:24;;;;;;;0.40;0.30;;;;;;;23.46;94.25;99548.50;5023808;28;20539;-51
2023/07/28 08:33:51;;;;;;;0.40;0.20;;;;;;;23.50;93.88;99542.63;5035885;28;20447;-51
2023/07/28 08:36:18;;;;;;;0.50;0.27;;;;;;;23.55;92.65;99539.47;5035332;28;20506;-51
2023/07/28 08:38:45;;;;;;;0.50;0.30;;;;;;;23.97;91.73;99539.97;5035258;28;20454;-51
2023/07/28 08:41:13;;;;;;;0.40;0.20;;;;;;;24.30;91.16;99540.47;5009411;28;20499;-51
2023/07/28 08:43:40;;;;;;;0.50;0.20;;;;;;;24.21;90.50;99536.75;5035318;28;20455;-51
2023/07/28 08:46:08;;;;;;;0.47;0.30;;;;;;;24.64;89.30;99540.72;5035355;28;20471;-51
2023/07/28 08:48:34;;;;;;;0.50;0.20;;;;;;;24.86;87.42;99547.59;5034949;28;20545;-52
2023/07/28 08:51:04;;;;;;;0.50;0.20;;;;;;;24.94;85.96;99548.53;5035121;28;20426;-51
2023/07/28 08:53:30;;;;;;;0.50;0.20;;;;;;;25.10;84.79;99548.75;5034903;28;20957;-52
2023/07/28 08:55:57;;;;;;;0.50;0.30;;;;;;;25.09;85.44;99551.63;5035188;28;20468;-51
2023/07/28 08:58:24;;;;;;;0.50;0.20;;;;;;;25.19;85.27;99552.38;5034564;28;20444;-51
2023/07/28 09:00:53;;;;;;;0.50;0.20;;;;;;;25.56;83.64;99557.66;5029531;28;20509;-52
2023/07/28 09:03:21;;;;;;;0.50;0.20;;;;;;;25.42;84.21;99560.09;5030511;28;20542;-51
2023/07/28 09:05:47;;;;;;;0.90;0.90;;;;;;;25.05;84.45;99550.22;5035076;28;20558;-51
2023/07/28 09:08:18;;;;;;;0.50;0.27;;;;;;;25.06;84.87;99551.91;5035103;28;20593;-51
2023/07/28 09:10:49;;;;;;;0.50;0.20;;;;;;;25.17;84.82;99556.28;5033807;28;20558;-51
2023/07/28 09:13:17;;;;;;;0.50;0.20;;;;;;;25.01;85.45;99565.13;5034705;28;20490;-53
2023/07/28 09:15:44;;;;;;;0.50;0.30;;;;;;;24.98;85.75;99549.09;5035263;28;21009;-51
2023/07/28 09:18:13;;;;;;;0.50;0.20;;;;;;;25.09;85.54;99547.06;5034604;28;20987;-52
2023/07/28 09:20:41;;;;;;;0.50;0.30;;;;;;;24.96;85.76;99560.13;5034637;28;20542;-52
2023/07/28 09:23:08;;;;;;;0.50;0.30;;;;;;;25.03;85.45;99554.97;5030947;28;20487;-53
2023/07/28 09:25:37;;;;;;;0.50;0.30;;;;;;;24.61;85.79;99557.34;5015034;28;20507;-51
2023/07/28 09:28:04;;;;;;;0.50;0.30;;;;;;;24.55;86.22;99552.53;5032880;28;20519;-51
2023/07/28 09:30:49;;;;;;;0.50;0.30;;;;;;;24.69;86.27;99562.88;5023670;28;21017;-51
2023/07/28 09:33:34;;;;;;;0.50;0.20;;;;;;;24.77;85.88;99555.66;5010897;28;20458;-52
2023/07/28 09:36:11;;;;;;;0.50;0.20;;;;;;;24.72;85.45;99551.69;5034137;28;20468;-52
2023/07/28 09:38:40;;;;;;;0.50;0.30;;;;;;;24.38;87.74;99557.72;5034296;28;20447;-51
2023/07/28 09:41:11;;;;;;;0.50;0.20;;;;;;;24.87;85.63;99554.75;5034098;28;20478;-52
2023/07/28 09:43:39;;;;;;;0.50;0.20;;;;;;;24.51;85.88;99550.09;5034450;28;20459;-51
2023/07/28 09:46:09;;;;;;;0.50;0.27;;;;;;;24.65;85.95;99550.59;5008176;28;20476;-52
2023/07/28 09:48:38;;;;;;;0.50;0.20;;;;;;;24.82;86.78;99552.50;5034013;28;20498;-51
2023/07/28 09:51:09;;;;;;;0.50;0.30;;;;;;;24.73;84.73;99561.56;5034184;28;20498;-51
2023/07/28 09:53:44;;;;;;;0.50;0.20;;;;;;;24.83;85.50;99559.66;5033831;28;21016;-53
2023/07/28 09:56:14;;;;;;;0.50;0.20;;;;;;;24.92;85.09;99557.84;5034190;28;20566;-52
2023/07/28 09:58:44;;;;;;;0.50;0.20;;;;;;;24.65;85.78;99554.16;5033936;28;20514;-51
2023/07/28 10:01:11;;;;;;;0.43;0.23;;;;;;;24.57;87.21;99554.06;5026794;28;20543;-51
2023/07/28 10:03:37;;;;;;;0.40;0.20;;;;;;;24.54;87.34;99550.81;5031535;28;20463;-52
2023/07/28 10:06:05;;;;;;;0.50;0.20;;;;;;;24.29;88.29;99555.03;5033708;28;20468;-52
2023/07/28 10:08:34;;;;;;;0.50;0.20;;;;;;;24.35;87.79;99557.19;5033502;28;20565;-52
2023/07/28 10:11:02;;;;;;;0.50;0.30;;;;;;;24.23;89.37;99557.31;5033023;28;20467;-51
2023/07/28 10:13:28;;;;;;;0.50;0.27;;;;;;;24.26;88.10;99561.63;5033695;28;20483;-52
2023/07/28 10:15:55;;;;;;;0.50;0.20;;;;;;;24.28;88.32;99556.91;5033636;28;20511;-52
2023/07/28 10:18:22;;;;;;;0.50;0.20;;;;;;;24.30;88.14;99564.94;5033522;28;20444;-51
2023/07/28 10:20:49;;;;;;;0.50;0.27;;;;;;;24.73;87.92;99564.28;5033357;28;20518;-52
2023/07/28 10:23:24;;;;;;;0.50;0.30;;;;;;;24.46;87.40;99567.84;5028651;28;20830;-51
2023/07/28 10:25:59;;;;;;;0.40;0.20;;;;;;;24.39;88.14;99562.16;5013768;28;20996;-52
2023/07/28 10:28:31;;;;;;;0.40;0.20;;;;;;;24.50;87.36;99567.41;5009375;28;20487;-51
2023/07/28 10:30:59;;;;;;;0.40;0.20;;;;;;;24.54;87.69;99570.69;5020419;28;20445;-52
2023/07/28 10:33:38;;;;;;;0.50;0.30;;;;;;;24.43;86.59;99569.03;5033091;28;20530;-51
2023/07/28 10:36:13;;;;;;;0.40;0.20;;;;;;;24.16;88.29;99569.81;5033106;28;20547;-51
2023/07/28 10:38:40;;;;;;;0.50;0.20;;;;;;;24.17;89.05;99574.22;5033240;28;20447;-51
2023/07/28 10:41:07;;;;;;;0.50;0.20;;;;;;;24.15;89.31;99581.69;5032998;28;20795;-51
2023/07/28 10:43:33;;;;;;;0.50;0.20;;;;;;;23.84;89.86;99577.44;5033003;28;20448;-53
2023/07/28 10:46:00;;;;;;;0.43;0.30;;;;;;;23.89;90.40;99577.88;5033028;28;20499;-51
2023/07/28 10:48:27;;;;;;;0.50;0.30;;;;;;;23.83;90.36;99578.44;5033145;28;20491;-52
2023/07/28 10:50:53;;;;;;;0.50;0.20;;;;;;;23.89;89.72;99577.88;5033236;28;20552;-51
2023/07/28 10:53:20;;;;;;;0.50;0.20;;;;;;;24.05;89.83;99580.00;5032916;28;20869;-51
2023/07/28 10:55:46;;;;;;;0.50;0.23;;;;;;;23.98;89.85;99579.69;5031611;28;20467;-51
2023/07/28 10:58:14;;;;;;;0.50;0.30;;;;;;;23.93;90.51;99585.59;5032673;28;20454;-51
2023/07/28 11:00:41;;;;;;;0.50;0.30;;;;;;;23.94;90.37;99579.16;5011973;28;20459;-53
2023/07/28 11:03:08;;;;;;;0.50;0.20;;;;;;;24.04;90.52;99583.72;5028013;28;20876;-51
2023/07/28 11:05:35;;;;;;;0.50;0.30;;;;;;;24.07;89.59;99583.41;5032557;28;20542;-51
2023/07/28 11:08:02;;;;;;;0.50;0.23;;;;;;;24.34;89.41;99579.91;5032716;28;20494;-53
2023/07/28 11:10:29;;;;;;;0.50;0.20;;;;;;;24.02;88.96;99588.44;5006955;28;20933;-51
2023/07/28 11:12:58;;;;;;;0.50;0.30;;;;;;;24.10;88.77;99580.38;5032320;28;20455;-52
2023/07/28 11:15:28;;;;;;;0.40;0.20;;;;;;;24.07;88.06;99586.13;5032407;28;21023;-51
2023/07/28 11:17:55;;;;;;;0.50;0.30;;;;;;;24.01;87.86;99579.44;5032908;28;20527;-51
2023/07/28 11:20:24;;;;;;;0.50;0.20;;;;;;;23.93;88.20;99579.28;5032442;28;20506;-51
2023/07/28 11:22:59;;;;;;;0.50;0.20;;;;;;;24.03;88.41;99582.84;5030980;28;20505;-52
2023/07/28 11:25:27;;;;;;;0.40;0.20;;;;;;;24.09;88.73;99578.69;5012614;28;20534;-52
2023/07/28 11:27:55;;;;;;;0.50;0.20;;;;;;;24.13;88.00;99585.56;5029318;28;20502;-51
2023/07/28 11:30:23;;;;;;;0.50;0.20;;;;;;;24.12;88.11;99592.84;5022962;28;20575;-51